createdAt,value
2022-11-04T00:00:54.636Z,99987.88
2022-11-04T00:03:21.356Z,99971.03
2022-11-04T00:05:47.931Z,99974.94
2022-11-04T00:08:14.518Z,99964.69
2022-11-04T00:10:41.096Z,99955.50
2022-11-04T00:13:07.880Z,99952.06
2022-11-04T00:15:37.562Z,99947.81
2022-11-04T00:18:04.149Z,99952.03
2022-11-04T00:20:30.762Z,99953.25
2022-11-04T00:22:57.392Z,99958.00
2022-11-04T00:25:24.695Z,99953.72
2022-11-04T00:27:51.324Z,99937.44
2022-11-04T00:30:17.933Z,99933.06
2022-11-04T00:32:44.516Z,99920.66
2022-11-04T00:35:12.537Z,99923.16
2022-11-04T00:37:41.194Z,99921.25
2022-11-04T00:40:09.750Z,99912.16
2022-11-04T00:42:36.316Z,99900.78
2022-11-04T00:45:03.585Z,99889.94
2022-11-04T00:47:30.176Z,99889.91
2022-11-04T00:49:57.169Z,99880.13
2022-11-04T00:52:23.871Z,99870.63
2022-11-04T00:54:50.467Z,99865.41
2022-11-04T00:57:17.034Z,99862.56
2022-11-04T00:59:43.653Z,99865.06
2022-11-04T01:02:10.631Z,99872.59
2022-11-04T01:04:37.307Z,99876.97
2022-11-04T01:07:04.035Z,99873.81
2022-11-04T01:09:30.621Z,99875.97
2022-11-04T01:11:57.332Z,99870.44
2022-11-04T01:14:23.994Z,99856.72
2022-11-04T01:16:50.860Z,99856.03
2022-11-04T01:19:18.332Z,99850.34
2022-11-04T01:21:45.483Z,99864.88
2022-11-04T01:24:12.095Z,99868.56
2022-11-04T01:26:38.691Z,99870.19
2022-11-04T01:29:05.301Z,99868.06
2022-11-04T01:31:32.044Z,99870.84
2022-11-04T01:33:59.172Z,99871.63
2022-11-04T01:36:26.962Z,99858.16
2022-11-04T01:38:55.782Z,99853.34
2022-11-04T01:41:28.412Z,99852.56
2022-11-04T01:43:59.400Z,99851.72
2022-11-04T01:46:41.246Z,99841.03
2022-11-04T01:49:22.740Z,99832.44
2022-11-04T01:51:53.193Z,99832.09
2022-11-04T01:54:20.275Z,99818.84
2022-11-04T01:56:48.753Z,99829.59
2022-11-04T01:59:23.051Z,99824.09
2022-11-04T02:01:49.804Z,99822.66
2022-11-04T02:04:17.016Z,99808.84
2022-11-04T02:06:44.658Z,99798.03
2022-11-04T02:09:11.648Z,99790.31
2022-11-04T02:11:38.283Z,99777.25
2022-11-04T02:14:04.875Z,99774.63
2022-11-04T02:16:45.215Z,99776.66
2022-11-04T02:20:02.613Z,99770.09
2022-11-04T02:22:47.652Z,99785.88
2022-11-04T02:25:31.212Z,99785.78
2022-11-04T02:28:03.856Z,99781.72
2022-11-04T02:31:00.310Z,99768.25
2022-11-04T02:33:32.647Z,99760.34
2022-11-04T02:36:15.863Z,99761.69
2022-11-04T02:39:08.001Z,99765.38
2022-11-04T02:41:51.390Z,99761.38
2022-11-04T02:44:36.271Z,99763.97
2022-11-04T02:47:12.991Z,99756.41
2022-11-04T02:50:02.748Z,99749.47
2022-11-04T02:52:41.290Z,99737.72
2022-11-04T02:55:18.218Z,99725.31
2022-11-04T02:57:48.004Z,99733.72
2022-11-04T03:00:15.715Z,99737.31
2022-11-04T03:02:48.208Z,99735.00
2022-11-04T03:05:20.033Z,99732.41
2022-11-04T03:07:50.475Z,99726.75
2022-11-04T03:10:25.457Z,99729.53
2022-11-04T03:13:02.289Z,99735.78
2022-11-04T03:15:32.754Z,99740.59
2022-11-04T03:18:25.797Z,99734.78
2022-11-04T03:20:57.033Z,99746.13
2022-11-04T03:23:23.968Z,99755.06
2022-11-04T03:25:57.705Z,99736.81
2022-11-04T03:29:05.727Z,99742.44
2022-11-04T03:31:47.745Z,99739.31
2022-11-04T03:34:14.389Z,99729.19
2022-11-04T03:36:41.140Z,99717.28
2022-11-04T03:39:07.754Z,99700.19
2022-11-04T03:41:45.039Z,99683.97
2022-11-04T03:44:11.666Z,99674.72
2022-11-04T03:46:39.104Z,99664.31
2022-11-04T03:49:06.731Z,99656.56
2022-11-04T03:51:33.325Z,99668.13
2022-11-04T03:54:00.153Z,99668.00
2022-11-04T03:56:51.697Z,99667.44
2022-11-04T03:59:21.144Z,99665.59
2022-11-04T04:01:56.860Z,99667.53
2022-11-04T04:04:34.213Z,99677.91
2022-11-04T04:07:16.791Z,99681.66
2022-11-04T04:10:13.038Z,99668.88
2022-11-04T04:12:41.516Z,99662.47
2022-11-04T04:15:17.448Z,99654.81
2022-11-04T04:17:48.806Z,99662.47
2022-11-04T04:20:19.767Z,99655.94
2022-11-04T04:23:08.372Z,99647.09
2022-11-04T04:25:35.145Z,99635.75
2022-11-04T04:28:03.770Z,99634.66
2022-11-04T04:30:31.096Z,99629.25
2022-11-04T04:33:08.250Z,99621.50
2022-11-04T04:35:44.820Z,99624.72
2022-11-04T04:38:22.324Z,99617.69
2022-11-04T04:40:56.238Z,99615.81
2022-11-04T04:43:22.955Z,99621.38
2022-11-04T04:45:52.623Z,99626.44
2022-11-04T04:48:19.639Z,99626.81
2022-11-04T04:50:49.975Z,99625.94
2022-11-04T04:53:16.636Z,99622.41
2022-11-04T04:55:43.261Z,99621.41
2022-11-04T04:58:10.334Z,99620.91
2022-11-04T05:00:36.956Z,99624.09
2022-11-04T05:03:03.603Z,99621.66
2022-11-04T05:05:30.246Z,99608.34
2022-11-04T05:08:04.663Z,99610.13
2022-11-04T05:10:31.260Z,99608.47
2022-11-04T05:12:59.719Z,99610.22
2022-11-04T05:15:27.712Z,99611.06
2022-11-04T05:18:01.588Z,99610.53
2022-11-04T05:20:28.433Z,99605.06
2022-11-04T05:22:55.064Z,99609.16
2022-11-04T05:25:21.715Z,99610.66
2022-11-04T05:27:48.358Z,99619.19
2022-11-04T05:30:14.952Z,99619.97
2022-11-04T05:32:41.540Z,99626.63
2022-11-04T05:35:08.279Z,99633.38
2022-11-04T05:37:34.857Z,99633.91
2022-11-04T05:40:01.483Z,99636.34
2022-11-04T05:42:28.121Z,99641.28
2022-11-04T05:44:54.757Z,99634.44
2022-11-04T05:47:21.419Z,99626.34
2022-11-04T05:49:48.022Z,99618.19
2022-11-04T05:52:14.594Z,99613.03
2022-11-04T05:54:41.166Z,99611.44
2022-11-04T05:57:09.183Z,99616.28
2022-11-04T05:59:35.814Z,99624.44
2022-11-04T06:02:03.429Z,99620.59
2022-11-04T06:04:30.100Z,99618.88
2022-11-04T06:06:56.699Z,99628.94
2022-11-04T06:09:23.351Z,99627.31
2022-11-04T06:11:49.928Z,99630.22
2022-11-04T06:14:18.711Z,99642.56
2022-11-04T06:16:45.632Z,99649.00
2022-11-04T06:19:15.974Z,99651.22
2022-11-04T06:21:42.912Z,99655.25
2022-11-04T06:24:09.509Z,99661.13
2022-11-04T06:26:36.193Z,99654.72
2022-11-04T06:29:02.849Z,99644.94
2022-11-04T06:31:29.443Z,99651.13
2022-11-04T06:33:56.043Z,99647.59
2022-11-04T06:36:22.625Z,99645.16
2022-11-04T06:38:49.219Z,99638.50
2022-11-04T06:41:17.287Z,99648.53
2022-11-04T06:43:43.927Z,99656.28
2022-11-04T06:46:29.299Z,99660.69
2022-11-04T06:48:56.563Z,99659.41
2022-11-04T06:51:24.695Z,99647.66
2022-11-04T06:53:51.405Z,99640.84
2022-11-04T06:56:17.993Z,99642.13
2022-11-04T06:58:47.870Z,99635.97
2022-11-04T07:01:20.353Z,99633.94
2022-11-04T07:03:53.070Z,99632.56
2022-11-04T07:06:20.161Z,99636.31
2022-11-04T07:08:48.541Z,99642.66
2022-11-04T07:11:15.899Z,99628.56
2022-11-04T07:13:42.622Z,99633.28
2022-11-04T07:16:09.904Z,99636.34
2022-11-04T07:18:36.775Z,99639.00
2022-11-04T07:21:08.782Z,99648.09
2022-11-04T07:23:36.642Z,99647.41
2022-11-04T07:26:05.917Z,99644.56
2022-11-04T07:28:33.261Z,99647.91
2022-11-04T07:31:04.507Z,99641.84
2022-11-04T07:33:31.135Z,99646.19
2022-11-04T07:35:58.564Z,99638.00
2022-11-04T07:38:25.637Z,99637.22
2022-11-04T07:40:52.225Z,99638.75
2022-11-04T07:43:18.876Z,99641.00
2022-11-04T07:45:45.491Z,99637.88
2022-11-04T07:48:12.286Z,99630.28
2022-11-04T07:50:40.354Z,99622.56
2022-11-04T07:53:07.635Z,99627.88
2022-11-04T07:55:42.909Z,99618.38
2022-11-04T07:58:10.158Z,99610.81
2022-11-04T08:00:36.800Z,99612.50
2022-11-04T08:03:03.587Z,99606.63
2022-11-04T08:05:30.200Z,99603.19
2022-11-04T08:07:56.886Z,99604.69
2022-11-04T08:10:23.637Z,99598.53
2022-11-04T08:12:51.464Z,99598.91
2022-11-04T08:15:18.319Z,99595.16
2022-11-04T08:17:44.957Z,99592.41
2022-11-04T08:20:11.775Z,99584.47
2022-11-04T08:22:38.488Z,99576.91
2022-11-04T08:25:05.696Z,99591.75
2022-11-04T08:27:32.735Z,99597.34
2022-11-04T08:29:59.375Z,99592.44
2022-11-04T08:32:25.981Z,99600.56
2022-11-04T08:34:53.726Z,99596.16
2022-11-04T08:37:20.313Z,99598.44
2022-11-04T08:39:46.902Z,99587.19
2022-11-04T08:42:13.478Z,99583.28
2022-11-04T08:44:40.084Z,99577.28
2022-11-04T08:47:06.939Z,99578.25
2022-11-04T08:49:38.177Z,99578.31
2022-11-04T08:52:04.963Z,99580.97
2022-11-04T08:54:31.594Z,99587.50
2022-11-04T08:56:58.417Z,99584.03
2022-11-04T08:59:25.050Z,99588.69
2022-11-04T09:01:51.874Z,99592.50
2022-11-04T09:04:18.556Z,99575.38
2022-11-04T09:06:45.693Z,99567.38
2022-11-04T09:09:15.521Z,99559.03
2022-11-04T09:11:43.672Z,99551.78
2022-11-04T09:14:10.653Z,99563.44
2022-11-04T09:16:37.920Z,99555.91
2022-11-04T09:19:04.901Z,99545.50
2022-11-04T09:21:31.569Z,99538.06
2022-11-04T09:23:58.156Z,99541.13
2022-11-04T09:26:25.358Z,99540.50
2022-11-04T09:28:56.184Z,99551.22
2022-11-04T09:31:24.353Z,99540.03
2022-11-04T09:33:51.311Z,99545.19
2022-11-04T09:36:17.924Z,99545.41
2022-11-04T09:38:44.785Z,99542.84
2022-11-04T09:41:36.374Z,99542.56
2022-11-04T09:44:27.115Z,99535.16
2022-11-04T09:46:59.031Z,99538.41
2022-11-04T09:49:32.506Z,99536.94
2022-11-04T09:51:59.754Z,99533.84
2022-11-04T09:54:32.733Z,99531.28
2022-11-04T09:57:01.958Z,99525.75
2022-11-04T09:59:34.390Z,99518.72
2022-11-04T10:02:07.516Z,99513.56
2022-11-04T10:04:55.290Z,99507.88
2022-11-04T10:07:38.445Z,99503.09
2022-11-04T10:10:07.944Z,99508.75
2022-11-04T10:12:55.406Z,99496.34
2022-11-04T10:15:40.232Z,99494.97
2022-11-04T10:18:12.675Z,99486.09
2022-11-04T10:21:00.781Z,99479.78
2022-11-04T10:23:32.554Z,99478.25
2022-11-04T10:26:37.370Z,99468.56
2022-11-04T10:29:14.494Z,99465.00
2022-11-04T10:31:45.057Z,99472.34
2022-11-04T10:34:35.261Z,99472.13
2022-11-04T10:37:02.412Z,99475.66
2022-11-04T10:39:32.412Z,99474.19
2022-11-04T10:41:59.131Z,99471.16
2022-11-04T10:44:32.954Z,99460.16
2022-11-04T10:47:14.269Z,99456.69
2022-11-04T10:53:01.010Z,99447.22
2022-11-04T10:55:44.649Z,99439.41
2022-11-04T10:58:23.226Z,99437.56
2022-11-04T11:00:50.643Z,99434.59
2022-11-04T11:03:25.013Z,99437.94
2022-11-04T11:06:11.603Z,99429.31
2022-11-04T11:08:38.709Z,99426.28
2022-11-04T11:11:06.634Z,99422.91
2022-11-04T11:13:45.490Z,99421.16
2022-11-04T11:16:18.950Z,99418.81
2022-11-04T11:18:45.719Z,99418.91
2022-11-04T11:21:16.652Z,99416.19
2022-11-04T11:23:45.456Z,99412.19
2022-11-04T11:26:29.704Z,99422.72
2022-11-04T11:28:59.482Z,99430.50
2022-11-04T11:31:37.705Z,99423.75
2022-11-04T11:34:13.907Z,99417.59
2022-11-04T11:36:42.545Z,99413.72
2022-11-04T11:39:12.106Z,99414.84
2022-11-04T11:42:08.493Z,99408.56
2022-11-04T11:44:41.163Z,99409.69
2022-11-04T11:47:20.497Z,99401.91
2022-11-04T11:50:17.049Z,99401.28
2022-11-04T11:52:45.885Z,99394.59
2022-11-04T11:55:20.442Z,99397.84
2022-11-04T12:01:12.018Z,99375.78
2022-11-04T12:10:51.036Z,99368.47
2022-11-04T12:13:30.447Z,99366.72
2022-11-04T12:16:37.297Z,99356.25
2022-11-04T12:19:17.170Z,99344.47
2022-11-04T12:21:59.091Z,99342.63
2022-11-04T12:24:42.425Z,99329.75
2022-11-04T12:27:30.946Z,99324.59
2022-11-04T12:30:31.003Z,99321.66
2022-11-04T12:33:17.772Z,99313.69
2022-11-04T12:35:53.503Z,99315.88
2022-11-04T12:38:49.038Z,99308.19
2022-11-04T12:41:52.871Z,99300.84
2022-11-04T12:44:26.115Z,99297.06
2022-11-04T12:47:10.637Z,99288.72
2022-11-04T12:50:31.372Z,99282.81
2022-11-04T12:53:19.137Z,99275.34
2022-11-04T12:55:51.570Z,99279.09
2022-11-04T12:58:46.027Z,99286.66
2022-11-04T13:01:22.235Z,99281.03
2022-11-04T13:04:00.820Z,99284.75
2022-11-04T13:06:34.308Z,99279.69
2022-11-04T13:09:05.889Z,99266.38
2022-11-04T13:12:17.048Z,99259.22
2022-11-04T13:15:02.160Z,99261.28
2022-11-04T13:17:37.615Z,99264.00
2022-11-04T13:20:21.638Z,99268.50
2022-11-04T13:22:51.887Z,99265.56
2022-11-04T13:25:30.311Z,99261.56
2022-11-04T13:27:58.570Z,99262.78
2022-11-04T13:30:59.005Z,99251.47
2022-11-04T13:34:06.743Z,99250.81
2022-11-04T13:36:36.722Z,99248.63
2022-11-04T13:39:12.390Z,99252.88
2022-11-04T13:42:06.836Z,99251.59
2022-11-04T13:44:44.097Z,99255.69
2022-11-04T13:47:31.619Z,99255.25
2022-11-04T13:49:58.334Z,99254.88
2022-11-04T13:52:31.073Z,99261.72
2022-11-04T13:55:01.470Z,99257.97
2022-11-04T13:57:30.876Z,99252.72
2022-11-04T14:00:09.398Z,99247.31
2022-11-04T14:02:52.390Z,99239.75
2022-11-04T14:05:28.113Z,99235.16
2022-11-04T14:08:00.917Z,99238.34
2022-11-04T14:10:42.464Z,99238.56
2022-11-04T14:13:27.282Z,99245.97
2022-11-04T14:16:24.178Z,99250.72
2022-11-04T14:18:53.017Z,99248.75
2022-11-04T14:21:24.725Z,99249.31
2022-11-04T14:23:54.804Z,99243.63
2022-11-04T14:26:28.941Z,99245.75
2022-11-04T14:29:07.653Z,99232.22
2022-11-04T14:31:49.170Z,99221.69
2022-11-04T14:34:28.498Z,99210.09
2022-11-04T14:37:01.032Z,99204.53
2022-11-04T14:39:38.922Z,99201.19
2022-11-04T14:42:05.940Z,99207.66
2022-11-04T14:44:49.384Z,99209.66
2022-11-04T14:47:20.120Z,99203.59
2022-11-04T14:49:48.915Z,99202.19
2022-11-04T14:52:22.982Z,99205.56
2022-11-04T14:55:12.808Z,99198.41
2022-11-04T14:57:51.036Z,99199.25
2022-11-04T15:00:30.748Z,99199.13
2022-11-04T15:03:41.112Z,99193.19
2022-11-04T15:06:02.546Z,99183.38
2022-11-04T15:08:31.022Z,99183.16
2022-11-04T15:11:19.365Z,99181.78
2022-11-04T15:13:50.621Z,99178.16
2022-11-04T15:16:26.922Z,99182.34
2022-11-04T15:18:55.914Z,99181.94
2022-11-04T15:21:22.897Z,99179.53
2022-11-04T15:23:52.458Z,99172.34
2022-11-04T15:26:30.928Z,99186.50
2022-11-04T15:29:07.109Z,99189.44
2022-11-04T15:31:36.226Z,99182.63
2022-11-04T15:34:08.213Z,99185.56
2022-11-04T15:36:42.049Z,99185.34
2022-11-04T15:39:16.757Z,99181.38
2022-11-04T15:41:45.535Z,99185.63
2022-11-04T15:44:18.542Z,99187.22
2022-11-04T15:46:51.205Z,99183.72
2022-11-04T15:49:26.026Z,99182.69
2022-11-04T15:52:01.347Z,99175.91
2022-11-04T15:54:29.333Z,99180.56
2022-11-04T15:56:59.373Z,99190.47
2022-11-04T15:59:29.799Z,99189.78
2022-11-04T16:01:57.269Z,99195.34
2022-11-04T16:04:26.855Z,99200.03
2022-11-04T16:07:11.548Z,99200.59
2022-11-04T16:09:51.033Z,99202.41
2022-11-04T16:12:23.569Z,99202.19
2022-11-04T16:14:52.174Z,99194.06
2022-11-04T16:17:20.028Z,99189.91
2022-11-04T16:20:02.076Z,99196.84
2022-11-04T16:22:35.225Z,99193.34
2022-11-04T16:25:04.512Z,99193.78
2022-11-04T16:27:34.129Z,99195.03
2022-11-04T16:30:30.345Z,99204.69
2022-11-04T16:33:09.349Z,99214.19
2022-11-04T16:35:36.214Z,99223.97
2022-11-04T16:38:02.811Z,99206.94
2022-11-04T16:40:29.411Z,99195.44
2022-11-04T16:42:57.458Z,99202.03
2022-11-04T16:45:31.277Z,99200.31
2022-11-04T16:47:57.904Z,99188.97
2022-11-04T16:50:25.868Z,99194.16
2022-11-04T17:03:19.067Z,99181.88
2022-11-04T17:05:45.676Z,99182.47
2022-11-04T17:08:12.893Z,99183.03
2022-11-04T17:10:39.536Z,99182.00
2022-11-04T17:13:06.147Z,99184.28
2022-11-04T17:15:32.813Z,99180.97
2022-11-04T17:17:59.383Z,99170.13
2022-11-04T17:20:25.952Z,99165.06
2022-11-04T17:22:52.545Z,99170.28
2022-11-04T17:25:24.708Z,99161.59
2022-11-04T17:27:51.327Z,99174.03
2022-11-04T17:30:19.261Z,99176.44
2022-11-04T17:32:46.578Z,99172.78
2022-11-04T17:35:14.261Z,99177.50
2022-11-04T17:37:41.184Z,99157.63
2022-11-04T17:40:16.849Z,99159.66
2022-11-04T17:42:43.869Z,99163.75
2022-11-04T17:45:10.594Z,99161.91
2022-11-04T17:47:38.045Z,99161.75
2022-11-04T17:50:05.732Z,99161.16
2022-11-04T17:52:32.576Z,99170.75
2022-11-04T17:54:59.172Z,99175.91
2022-11-04T17:57:25.817Z,99173.66
2022-11-04T17:59:52.423Z,99168.25
2022-11-04T18:02:19.139Z,99172.59
2022-11-04T18:04:45.998Z,99169.75
2022-11-04T18:07:12.596Z,99165.47
2022-11-04T18:09:39.197Z,99177.34
2022-11-04T18:12:08.587Z,99192.25
2022-11-04T18:14:35.185Z,99205.88
2022-11-04T18:17:01.774Z,99212.38
2022-11-04T18:19:28.822Z,99197.75
2022-11-04T18:21:55.663Z,99193.63
2022-11-04T18:24:22.841Z,99184.50
2022-11-04T18:26:50.256Z,99185.06
2022-11-04T18:29:16.861Z,99171.28
2022-11-04T18:31:48.744Z,99169.06
2022-11-04T18:34:18.272Z,99172.56
2022-11-04T18:36:45.974Z,99170.41
2022-11-04T18:39:15.145Z,99174.69
2022-11-04T18:41:41.928Z,99176.91
2022-11-04T18:44:14.518Z,99171.81
2022-11-04T18:46:41.345Z,99178.25
2022-11-04T18:49:07.957Z,99179.22
2022-11-04T18:51:34.604Z,99193.59
2022-11-04T18:54:04.726Z,99202.63
2022-11-04T18:56:31.325Z,99199.47
2022-11-04T18:58:58.035Z,99203.09
2022-11-04T19:01:30.146Z,99201.91
2022-11-04T19:03:57.124Z,99215.69
2022-11-04T19:06:26.919Z,99212.56
2022-11-04T19:08:59.638Z,99221.38
2022-11-04T19:11:31.918Z,99232.72
2022-11-04T19:14:08.984Z,99241.88
2022-11-04T19:16:36.413Z,99236.66
2022-11-04T19:19:07.318Z,99235.06
2022-11-04T19:21:34.196Z,99230.84
2022-11-04T19:24:00.980Z,99219.63
2022-11-04T19:26:30.153Z,99217.88
2022-11-04T19:28:57.340Z,99234.94
2022-11-04T19:31:27.459Z,99247.22
2022-11-04T19:33:56.772Z,99256.50
2022-11-04T19:36:25.102Z,99249.69
2022-11-04T19:38:53.563Z,99250.81
2022-11-04T19:41:20.322Z,99249.88
2022-11-04T19:43:46.877Z,99248.00
2022-11-04T19:46:13.483Z,99251.91
2022-11-04T19:48:41.247Z,99241.31
2022-11-04T19:51:12.176Z,99241.66
2022-11-04T19:53:38.816Z,99236.84
2022-11-04T19:56:05.755Z,99234.34
2022-11-04T19:58:32.337Z,99229.09
2022-11-04T20:01:10.287Z,99236.25
2022-11-04T20:03:37.384Z,99238.75
2022-11-04T20:06:04.222Z,99245.09
2022-11-04T20:08:30.791Z,99252.03
2022-11-04T20:11:04.969Z,99257.16
2022-11-04T20:13:31.723Z,99255.25
2022-11-04T20:15:58.353Z,99246.50
2022-11-04T20:18:24.944Z,99250.91
2022-11-04T20:20:53.591Z,99244.69
2022-11-04T20:23:20.223Z,99247.22
2022-11-04T20:25:46.873Z,99243.56
2022-11-04T20:28:13.736Z,99248.72
2022-11-04T20:30:40.486Z,99242.19
2022-11-04T20:33:07.107Z,99240.94
2022-11-04T20:35:34.504Z,99247.63
2022-11-04T20:38:01.074Z,99251.47
2022-11-04T20:40:27.730Z,99238.53
2022-11-04T20:42:54.409Z,99240.31
2022-11-04T20:45:21.259Z,99236.91
2022-11-04T20:47:48.305Z,99235.66
2022-11-04T20:50:14.874Z,99224.09
2022-11-04T20:52:41.504Z,99229.38
2022-11-04T20:55:08.750Z,99228.16
2022-11-04T20:57:35.392Z,99227.81
2022-11-04T21:00:01.966Z,99234.88
2022-11-04T21:02:28.749Z,99233.50
2022-11-04T21:04:55.469Z,99233.25
2022-11-04T21:07:22.077Z,99242.38
2022-11-04T21:09:48.647Z,99239.16
2022-11-04T21:12:15.270Z,99247.72
2022-11-04T21:14:41.928Z,99246.44
2022-11-04T21:17:08.490Z,99255.09
2022-11-04T21:19:35.093Z,99255.56
2022-11-04T21:22:01.723Z,99259.41
2022-11-04T21:24:28.355Z,99245.47
2022-11-04T21:26:54.925Z,99247.31
2022-11-04T21:29:21.502Z,99241.75
2022-11-04T21:31:48.361Z,99258.31
2022-11-04T21:34:14.983Z,99265.06
2022-11-04T21:36:41.698Z,99277.56
2022-11-04T21:39:08.336Z,99285.06
2022-11-04T21:41:34.987Z,99291.34
2022-11-04T21:44:04.034Z,99289.34
2022-11-04T21:46:32.308Z,99283.34
2022-11-04T21:48:59.850Z,99295.44
2022-11-04T21:51:28.711Z,99292.34
2022-11-04T21:53:56.049Z,99291.75
2022-11-04T21:56:25.759Z,99281.94
2022-11-04T21:58:53.508Z,99284.47
2022-11-04T22:01:24.296Z,99292.84
2022-11-04T22:03:54.131Z,99299.22
2022-11-04T22:06:21.367Z,99289.72
2022-11-04T22:08:50.370Z,99291.13
2022-11-04T22:11:19.893Z,99278.94
2022-11-04T22:13:46.449Z,99280.94
2022-11-04T22:16:21.506Z,99292.06
2022-11-04T22:18:54.233Z,99280.00
2022-11-04T22:21:22.905Z,99286.16
2022-11-04T22:23:50.078Z,99286.03
2022-11-04T22:26:22.970Z,99274.78
2022-11-04T22:28:51.951Z,99282.00
2022-11-04T22:31:30.011Z,99280.28
2022-11-04T22:33:57.651Z,99288.91
2022-11-04T22:36:24.452Z,99287.19
2022-11-04T22:38:51.038Z,99277.38
2022-11-04T22:41:23.712Z,99281.66
2022-11-04T22:43:50.307Z,99283.34
2022-11-04T22:46:20.573Z,99295.19
2022-11-04T22:48:47.374Z,99292.22
2022-11-04T22:51:14.855Z,99291.84
2022-11-04T22:53:42.215Z,99294.59
2022-11-04T22:56:10.687Z,99292.59
2022-11-04T22:58:37.990Z,99294.41
2022-11-04T23:01:10.642Z,99292.84
2022-11-04T23:03:37.868Z,99302.44
2022-11-04T23:06:05.979Z,99304.19
2022-11-04T23:08:34.698Z,99294.41
2022-11-04T23:11:08.159Z,99297.94
2022-11-04T23:13:34.779Z,99296.63
2022-11-04T23:16:02.022Z,99293.63
2022-11-04T23:18:28.643Z,99296.72
2022-11-04T23:20:55.279Z,99303.56
2022-11-04T23:23:21.894Z,99307.97
2022-11-04T23:25:48.519Z,99303.78
2022-11-04T23:28:15.128Z,99303.72
2022-11-04T23:30:45.400Z,99310.16
2022-11-04T23:33:14.313Z,99309.97
2022-11-04T23:35:46.984Z,99307.94
2022-11-04T23:38:13.614Z,99306.31
2022-11-04T23:40:40.923Z,99309.25
2022-11-04T23:43:07.803Z,99312.97
2022-11-04T23:45:34.728Z,99314.63
2022-11-04T23:48:01.297Z,99308.88
2022-11-04T23:50:30.947Z,99305.16
2022-11-04T23:52:57.574Z,99310.06
2022-11-04T23:55:27.586Z,99310.94
2022-11-04T23:57:54.159Z,99305.44
